sensor_id;sensor_type;location;lat;lon;timestamp;temperature;humidity
72326;DHT22;60278;47.980;18.780;2022-11-15T00:00:02;4.54;99.99
72326;DHT22;60278;47.980;18.780;2022-11-15T00:03:52;4.22;99.99
72326;DHT22;60278;47.980;18.780;2022-11-15T00:07:42;4.18;99.99
72326;DHT22;60278;47.980;18.780;2022-11-15T00:11:31;3.99;99.99
72326;DHT22;60278;47.980;18.780;2022-11-15T00:15:20;4.11;99.99
72326;DHT22;60278;47.980;18.780;2022-11-15T00:19:10;4.11;99.99
72326;DHT22;60278;47.980;18.780;2022-11-15T00:22:59;4.21;99.99
72326;DHT22;60278;47.980;18.780;2022-11-15T00:26:49;4.28;99.99
72326;DHT22;60278;47.980;18.780;2022-11-15T00:30:38;4.21;99.99
72326;DHT22;60278;47.980;18.780;2022-11-15T00:34:27;4.25;99.99
72326;DHT22;60278;47.980;18.780;2022-11-15T00:38:17;4.69;99.99
72326;DHT22;60278;47.980;18.780;2022-11-15T00:42:06;4.82;99.99
72326;DHT22;60278;47.980;18.780;2022-11-15T00:45:55;4.76;99.99
72326;DHT22;60278;47.980;18.780;2022-11-15T00:49:45;4.83;99.99
72326;DHT22;60278;47.980;18.780;2022-11-15T00:53:35;4.76;99.99
72326;DHT22;60278;47.980;18.780;2022-11-15T00:57:24;4.59;99.99
72326;DHT22;60278;47.980;18.780;2022-11-15T01:01:14;4.99;99.99
72326;DHT22;60278;47.980;18.780;2022-11-15T01:05:04;4.78;99.99
72326;DHT22;60278;47.980;18.780;2022-11-15T01:08:53;4.89;99.99
72326;DHT22;60278;47.980;18.780;2022-11-15T01:12:42;5.00;99.99
72326;DHT22;60278;47.980;18.780;2022-11-15T01:16:32;4.97;99.99
72326;DHT22;60278;47.980;18.780;2022-11-15T01:20:22;4.82;99.99
72326;DHT22;60278;47.980;18.780;2022-11-15T01:24:12;4.73;99.99
72326;DHT22;60278;47.980;18.780;2022-11-15T01:28:02;4.62;99.99
72326;DHT22;60278;47.980;18.780;2022-11-15T01:31:53;4.73;99.99
72326;DHT22;60278;47.980;18.780;2022-11-15T01:35:42;4.65;99.99
72326;DHT22;60278;47.980;18.780;2022-11-15T01:39:33;4.71;99.99
72326;DHT22;60278;47.980;18.780;2022-11-15T01:43:34;4.79;99.99
72326;DHT22;60278;47.980;18.780;2022-11-15T01:47:28;4.54;99.99
72326;DHT22;60278;47.980;18.780;2022-11-15T01:51:20;4.69;99.99
72326;DHT22;60278;47.980;18.780;2022-11-15T01:55:15;4.50;99.99
72326;DHT22;60278;47.980;18.780;2022-11-15T01:59:08;4.59;99.99
72326;DHT22;60278;47.980;18.780;2022-11-15T02:02:58;4.50;99.99
72326;DHT22;60278;47.980;18.780;2022-11-15T02:06:48;4.61;99.99
72326;DHT22;60278;47.980;18.780;2022-11-15T02:10:37;4.81;99.99
72326;DHT22;60278;47.980;18.780;2022-11-15T02:14:28;4.76;99.86
72326;DHT22;60278;47.980;18.780;2022-11-15T02:18:27;4.48;99.99
72326;DHT22;60278;47.980;18.780;2022-11-15T02:35:57;4.54;99.94
72326;DHT22;60278;47.980;18.780;2022-11-15T02:39:59;4.45;99.99
72326;DHT22;60278;47.980;18.780;2022-11-15T02:43:58;4.37;99.99
72326;DHT22;60278;47.980;18.780;2022-11-15T02:47:51;4.51;99.99
72326;DHT22;60278;47.980;18.780;2022-11-15T02:51:45;4.51;99.99
72326;DHT22;60278;47.980;18.780;2022-11-15T02:55:38;4.48;99.99
72326;DHT22;60278;47.980;18.780;2022-11-15T03:13:21;4.67;99.99
72326;DHT22;60278;47.980;18.780;2022-11-15T03:20:36;4.83;99.07
72326;DHT22;60278;47.980;18.780;2022-11-15T03:24:28;4.71;99.99
72326;DHT22;60278;47.980;18.780;2022-11-15T03:28:23;4.83;99.77
72326;DHT22;60278;47.980;18.780;2022-11-15T03:32:19;4.89;99.58
72326;DHT22;60278;47.980;18.780;2022-11-15T03:36:09;4.71;99.99
72326;DHT22;60278;47.980;18.780;2022-11-15T03:39:59;4.92;99.39
72326;DHT22;60278;47.980;18.780;2022-11-15T03:44:03;5.02;98.99
72326;DHT22;60278;47.980;18.780;2022-11-15T03:47:59;4.99;99.71
72326;DHT22;60278;47.980;18.780;2022-11-15T03:51:50;5.00;99.50
72326;DHT22;60278;47.980;18.780;2022-11-15T03:55:40;4.88;99.32
72326;DHT22;60278;47.980;18.780;2022-11-15T03:59:29;4.81;99.99
72326;DHT22;60278;47.980;18.780;2022-11-15T04:03:19;4.79;99.99
72326;DHT22;60278;47.980;18.780;2022-11-15T04:07:08;4.82;99.99
72326;DHT22;60278;47.980;18.780;2022-11-15T04:10:57;4.92;99.84
72326;DHT22;60278;47.980;18.780;2022-11-15T04:14:47;5.02;99.56
72326;DHT22;60278;47.980;18.780;2022-11-15T04:18:56;4.92;99.99
72326;DHT22;60278;47.980;18.780;2022-11-15T04:23:10;5.03;99.99
72326;DHT22;60278;47.980;18.780;2022-11-15T04:27:19;4.82;99.99
72326;DHT22;60278;47.980;18.780;2022-11-15T04:31:08;5.15;99.99
72326;DHT22;60278;47.980;18.780;2022-11-15T04:34:57;5.52;99.12
72326;DHT22;60278;47.980;18.780;2022-11-15T04:38:47;5.30;99.71
72326;DHT22;60278;47.980;18.780;2022-11-15T04:42:36;5.43;99.99
72326;DHT22;60278;47.980;18.780;2022-11-15T04:46:26;5.27;99.30
72326;DHT22;60278;47.980;18.780;2022-11-15T04:50:15;5.12;99.09
72326;DHT22;60278;47.980;18.780;2022-11-15T04:54:05;4.93;99.99
72326;DHT22;60278;47.980;18.780;2022-11-15T04:58:02;4.93;99.99
72326;DHT22;60278;47.980;18.780;2022-11-15T05:01:51;5.00;99.99
72326;DHT22;60278;47.980;18.780;2022-11-15T05:05:41;5.06;99.99
72326;DHT22;60278;47.980;18.780;2022-11-15T05:09:31;5.12;99.99
72326;DHT22;60278;47.980;18.780;2022-11-15T05:13:20;5.09;99.71
72326;DHT22;60278;47.980;18.780;2022-11-15T05:17:10;5.09;99.96
72326;DHT22;60278;47.980;18.780;2022-11-15T05:21:04;5.18;99.58
72326;DHT22;60278;47.980;18.780;2022-11-15T05:24:54;5.29;98.98
72326;DHT22;60278;47.980;18.780;2022-11-15T05:28:43;5.10;99.61
72326;DHT22;60278;47.980;18.780;2022-11-15T05:32:33;4.99;99.99
72326;DHT22;60278;47.980;18.780;2022-11-15T05:40:25;5.16;99.99
72326;DHT22;60278;47.980;18.780;2022-11-15T05:44:17;5.23;99.99
72326;DHT22;60278;47.980;18.780;2022-11-15T05:48:09;5.47;99.39
72326;DHT22;60278;47.980;18.780;2022-11-15T05:51:59;5.29;99.99
72326;DHT22;60278;47.980;18.780;2022-11-15T05:55:49;5.36;99.99
72326;DHT22;60278;47.980;18.780;2022-11-15T05:59:38;5.50;99.38
72326;DHT22;60278;47.980;18.780;2022-11-15T06:03:29;5.40;99.69
72326;DHT22;60278;47.980;18.780;2022-11-15T06:07:19;5.44;99.24
72326;DHT22;60278;47.980;18.780;2022-11-15T06:11:09;5.40;99.16
72326;DHT22;60278;47.980;18.780;2022-11-15T06:14:58;5.36;99.65
72326;DHT22;60278;47.980;18.780;2022-11-15T06:18:48;5.46;99.06
72326;DHT22;60278;47.980;18.780;2022-11-15T06:22:37;5.34;99.99
72326;DHT22;60278;47.980;18.780;2022-11-15T06:26:26;5.67;98.90
72326;DHT22;60278;47.980;18.780;2022-11-15T06:30:16;5.70;98.68
72326;DHT22;60278;47.980;18.780;2022-11-15T06:34:05;5.61;99.22
72326;DHT22;60278;47.980;18.780;2022-11-15T06:37:55;5.65;99.68
72326;DHT22;60278;47.980;18.780;2022-11-15T06:41:45;5.64;99.99
72326;DHT22;60278;47.980;18.780;2022-11-15T06:45:35;5.65;99.99
72326;DHT22;60278;47.980;18.780;2022-11-15T06:49:24;5.74;99.46
72326;DHT22;60278;47.980;18.780;2022-11-15T06:53:14;5.81;99.85
72326;DHT22;60278;47.980;18.780;2022-11-15T06:57:04;5.84;99.03
72326;DHT22;60278;47.980;18.780;2022-11-15T07:00:57;5.94;98.77
72326;DHT22;60278;47.980;18.780;2022-11-15T07:04:47;5.95;98.21
72326;DHT22;60278;47.980;18.780;2022-11-15T07:08:37;5.90;98.86
72326;DHT22;60278;47.980;18.780;2022-11-15T07:12:27;6.09;98.59
72326;DHT22;60278;47.980;18.780;2022-11-15T07:16:16;6.11;98.58
72326;DHT22;60278;47.980;18.780;2022-11-15T07:20:07;6.09;98.46
72326;DHT22;60278;47.980;18.780;2022-11-15T07:23:56;6.33;97.94
72326;DHT22;60278;47.980;18.780;2022-11-15T07:27:54;6.22;98.40
72326;DHT22;60278;47.980;18.780;2022-11-15T07:31:44;6.32;98.36
72326;DHT22;60278;47.980;18.780;2022-11-15T07:35:34;6.53;98.24
72326;DHT22;60278;47.980;18.780;2022-11-15T07:39:24;6.67;97.68
72326;DHT22;60278;47.980;18.780;2022-11-15T07:43:14;6.74;97.56
72326;DHT22;60278;47.980;18.780;2022-11-15T07:47:03;6.52;98.78
72326;DHT22;60278;47.980;18.780;2022-11-15T07:50:53;6.67;99.26
72326;DHT22;60278;47.980;18.780;2022-11-15T07:54:42;6.49;98.80
72326;DHT22;60278;47.980;18.780;2022-11-15T07:58:32;6.81;98.33
72326;DHT22;60278;47.980;18.780;2022-11-15T08:02:21;7.01;97.63
72326;DHT22;60278;47.980;18.780;2022-11-15T08:06:11;7.09;97.89
72326;DHT22;60278;47.980;18.780;2022-11-15T08:10:00;7.43;96.02
72326;DHT22;60278;47.980;18.780;2022-11-15T08:13:50;7.41;97.89
72326;DHT22;60278;47.980;18.780;2022-11-15T08:17:40;7.14;97.52
72326;DHT22;60278;47.980;18.780;2022-11-15T08:21:30;7.04;97.28
72326;DHT22;60278;47.980;18.780;2022-11-15T08:25:19;7.28;96.81
72326;DHT22;60278;47.980;18.780;2022-11-15T08:29:08;7.36;96.95
72326;DHT22;60278;47.980;18.780;2022-11-15T08:32:58;7.48;97.15
72326;DHT22;60278;47.980;18.780;2022-11-15T08:36:48;7.42;96.84
72326;DHT22;60278;47.980;18.780;2022-11-15T08:40:37;7.52;97.39
72326;DHT22;60278;47.980;18.780;2022-11-15T08:44:27;7.35;96.70
72326;DHT22;60278;47.980;18.780;2022-11-15T08:48:16;7.21;97.95
72326;DHT22;60278;47.980;18.780;2022-11-15T08:52:08;7.23;97.77
72326;DHT22;60278;47.980;18.780;2022-11-15T08:55:57;7.26;97.95
72326;DHT22;60278;47.980;18.780;2022-11-15T08:59:47;7.46;96.61
72326;DHT22;60278;47.980;18.780;2022-11-15T09:03:36;7.56;96.29
72326;DHT22;60278;47.980;18.780;2022-11-15T09:07:28;7.31;98.38
72326;DHT22;60278;47.980;18.780;2022-11-15T09:11:19;7.35;97.79
72326;DHT22;60278;47.980;18.780;2022-11-15T09:15:10;7.43;98.16
72326;DHT22;60278;47.980;18.780;2022-11-15T09:19:00;7.31;99.44
72326;DHT22;60278;47.980;18.780;2022-11-15T09:22:50;7.69;97.57
72326;DHT22;60278;47.980;18.780;2022-11-15T09:26:40;7.52;98.28
72326;DHT22;60278;47.980;18.780;2022-11-15T09:30:29;7.39;99.41
72326;DHT22;60278;47.980;18.780;2022-11-15T09:34:19;7.66;98.03
72326;DHT22;60278;47.980;18.780;2022-11-15T09:38:10;7.67;98.07
72326;DHT22;60278;47.980;18.780;2022-11-15T09:46:42;7.55;99.20
72326;DHT22;60278;47.980;18.780;2022-11-15T09:50:27;7.58;98.43
72326;DHT22;60278;47.980;18.780;2022-11-15T09:58:04;7.53;98.93
72326;DHT22;60278;47.980;18.780;2022-11-15T10:01:54;7.55;99.65
72326;DHT22;60278;47.980;18.780;2022-11-15T10:05:28;7.80;98.48
72326;DHT22;60278;47.980;18.780;2022-11-15T10:09:19;7.93;98.42
72326;DHT22;60278;47.980;18.780;2022-11-15T10:12:53;7.93;98.75
72326;DHT22;60278;47.980;18.780;2022-11-15T10:20:12;7.94;98.28
72326;DHT22;60278;47.980;18.780;2022-11-15T10:23:45;7.83;98.57
72326;DHT22;60278;47.980;18.780;2022-11-15T10:27:17;7.83;98.79
72326;DHT22;60278;47.980;18.780;2022-11-15T10:30:52;7.97;98.06
72326;DHT22;60278;47.980;18.780;2022-11-15T10:34:36;7.98;98.28
72326;DHT22;60278;47.980;18.780;2022-11-15T10:38:09;7.90;98.25
72326;DHT22;60278;47.980;18.780;2022-11-15T10:41:41;8.03;97.90
72326;DHT22;60278;47.980;18.780;2022-11-15T10:45:25;8.08;98.63
72326;DHT22;60278;47.980;18.780;2022-11-15T10:49:29;8.15;98.20
72326;DHT22;60278;47.980;18.780;2022-11-15T10:53:01;8.41;96.77
72326;DHT22;60278;47.980;18.780;2022-11-15T10:56:33;8.53;96.43
72326;DHT22;60278;47.980;18.780;2022-11-15T11:03:38;8.61;97.33
72326;DHT22;60278;47.980;18.780;2022-11-15T11:07:21;8.73;97.27
72326;DHT22;60278;47.980;18.780;2022-11-15T11:10:59;8.97;97.24
72326;DHT22;60278;47.980;18.780;2022-11-15T11:14:34;8.77;96.50
72326;DHT22;60278;47.980;18.780;2022-11-15T11:18:12;9.23;95.08
72326;DHT22;60278;47.980;18.780;2022-11-15T11:29:24;9.03;96.06
72326;DHT22;60278;47.980;18.780;2022-11-15T11:33:13;9.09;95.42
72326;DHT22;60278;47.980;18.780;2022-11-15T11:45:31;9.21;95.22
72326;DHT22;60278;47.980;18.780;2022-11-15T11:48:57;9.13;95.79
72326;DHT22;60278;47.980;18.780;2022-11-15T11:52:56;9.24;95.03
72326;DHT22;60278;47.980;18.780;2022-11-15T11:56:35;9.13;96.30
72326;DHT22;60278;47.980;18.780;2022-11-15T12:00:18;9.17;95.41
72326;DHT22;60278;47.980;18.780;2022-11-15T12:04:01;9.21;94.97
72326;DHT22;60278;47.980;18.780;2022-11-15T12:07:36;9.30;95.47
72326;DHT22;60278;47.980;18.780;2022-11-15T12:18:46;9.16;96.38
72326;DHT22;60278;47.980;18.780;2022-11-15T12:22:21;9.03;96.15
72326;DHT22;60278;47.980;18.780;2022-11-15T12:26:00;9.04;95.97
72326;DHT22;60278;47.980;18.780;2022-11-15T12:29:41;9.07;96.43
72326;DHT22;60278;47.980;18.780;2022-11-15T12:33:37;9.04;96.29
72326;DHT22;60278;47.980;18.780;2022-11-15T12:41:18;9.16;96.29
72326;DHT22;60278;47.980;18.780;2022-11-15T12:52:08;9.06;96.98
72326;DHT22;60278;47.980;18.780;2022-11-15T12:55:39;9.06;96.68
72326;DHT22;60278;47.980;18.780;2022-11-15T12:59:10;9.00;96.67
72326;DHT22;60278;47.980;18.780;2022-11-15T13:02:44;9.00;97.37
72326;DHT22;60278;47.980;18.780;2022-11-15T13:06:44;8.83;97.44
72326;DHT22;60278;47.980;18.780;2022-11-15T13:13:46;9.12;97.21
72326;DHT22;60278;47.980;18.780;2022-11-15T13:17:36;9.04;97.06
72326;DHT22;60278;47.980;18.780;2022-11-15T13:21:28;9.17;96.52
72326;DHT22;60278;47.980;18.780;2022-11-15T13:28:52;9.04;96.75
72326;DHT22;60278;47.980;18.780;2022-11-15T13:32:25;9.00;96.88
72326;DHT22;60278;47.980;18.780;2022-11-15T13:36:02;9.04;96.73
72326;DHT22;60278;47.980;18.780;2022-11-15T13:39:34;9.26;96.34
72326;DHT22;60278;47.980;18.780;2022-11-15T13:43:26;9.26;96.43
72326;DHT22;60278;47.980;18.780;2022-11-15T13:47:13;9.13;97.00
72326;DHT22;60278;47.980;18.780;2022-11-15T13:50:44;9.13;97.32
72326;DHT22;60278;47.980;18.780;2022-11-15T13:57:58;8.97;97.51
72326;DHT22;60278;47.980;18.780;2022-11-15T14:01:31;9.09;97.97
72326;DHT22;60278;47.980;18.780;2022-11-15T14:05:17;8.97;98.24
72326;DHT22;60278;47.980;18.780;2022-11-15T14:12:35;8.97;98.12
72326;DHT22;60278;47.980;18.780;2022-11-15T14:16:39;9.02;98.53
72326;DHT22;60278;47.980;18.780;2022-11-15T14:20:27;8.96;98.42
72326;DHT22;60278;47.980;18.780;2022-11-15T14:24:20;8.96;98.57
72326;DHT22;60278;47.980;18.780;2022-11-15T14:28:12;9.12;98.40
72326;DHT22;60278;47.980;18.780;2022-11-15T14:31:44;8.90;98.45
72326;DHT22;60278;47.980;18.780;2022-11-15T14:35:20;9.02;98.56
72326;DHT22;60278;47.980;18.780;2022-11-15T14:38:51;8.87;99.20
72326;DHT22;60278;47.980;18.780;2022-11-15T14:42:23;8.84;98.78
72326;DHT22;60278;47.980;18.780;2022-11-15T14:45:54;8.80;98.85
72326;DHT22;60278;47.980;18.780;2022-11-15T14:49:25;8.77;98.84
72326;DHT22;60278;47.980;18.780;2022-11-15T14:52:56;8.84;98.94
72326;DHT22;60278;47.980;18.780;2022-11-15T14:56:27;8.86;98.62
72326;DHT22;60278;47.980;18.780;2022-11-15T14:59:58;8.90;98.06
72326;DHT22;60278;47.980;18.780;2022-11-15T15:03:43;8.72;98.05
72326;DHT22;60278;47.980;18.780;2022-11-15T15:07:15;8.89;97.79
72326;DHT22;60278;47.980;18.780;2022-11-15T15:10:46;8.86;97.88
72326;DHT22;60278;47.980;18.780;2022-11-15T15:14:17;8.77;98.33
72326;DHT22;60278;47.980;18.780;2022-11-15T15:17:48;8.69;99.03
72326;DHT22;60278;47.980;18.780;2022-11-15T15:21:24;8.68;99.04
72326;DHT22;60278;47.980;18.780;2022-11-15T15:24:56;8.72;99.07
72326;DHT22;60278;47.980;18.780;2022-11-15T15:28:27;8.69;98.93
72326;DHT22;60278;47.980;18.780;2022-11-15T15:31:58;8.66;99.18
72326;DHT22;60278;47.980;18.780;2022-11-15T15:35:32;8.73;99.25
72326;DHT22;60278;47.980;18.780;2022-11-15T15:39:03;8.68;98.75
72326;DHT22;60278;47.980;18.780;2022-11-15T15:42:34;8.68;98.95
72326;DHT22;60278;47.980;18.780;2022-11-15T15:46:09;8.61;98.76
72326;DHT22;60278;47.980;18.780;2022-11-15T15:49:40;8.62;99.38
72326;DHT22;60278;47.980;18.780;2022-11-15T15:53:12;8.62;99.38
72326;DHT22;60278;47.980;18.780;2022-11-15T15:56:44;8.53;99.48
72326;DHT22;60278;47.980;18.780;2022-11-15T16:00:16;8.58;99.43
72326;DHT22;60278;47.980;18.780;2022-11-15T16:03:47;8.55;99.57
72326;DHT22;60278;47.980;18.780;2022-11-15T16:07:21;8.58;99.90
72326;DHT22;60278;47.980;18.780;2022-11-15T16:10:54;8.68;99.58
72326;DHT22;60278;47.980;18.780;2022-11-15T16:14:25;8.71;99.45
72326;DHT22;60278;47.980;18.780;2022-11-15T16:17:58;8.62;99.49
72326;DHT22;60278;47.980;18.780;2022-11-15T16:21:30;8.53;99.61
72326;DHT22;60278;47.980;18.780;2022-11-15T16:25:01;8.58;99.91
72326;DHT22;60278;47.980;18.780;2022-11-15T16:28:32;8.53;99.98
72326;DHT22;60278;47.980;18.780;2022-11-15T16:32:03;8.68;99.63
72326;DHT22;60278;47.980;18.780;2022-11-15T16:35:34;8.68;99.32
72326;DHT22;60278;47.980;18.780;2022-11-15T16:39:05;8.71;99.25
72326;DHT22;60278;47.980;18.780;2022-11-15T16:42:37;8.65;99.74
72326;DHT22;60278;47.980;18.780;2022-11-15T16:46:34;8.69;99.75
72326;DHT22;60278;47.980;18.780;2022-11-15T16:50:05;8.66;99.44
72326;DHT22;60278;47.980;18.780;2022-11-15T16:53:37;8.71;99.18
72326;DHT22;60278;47.980;18.780;2022-11-15T16:57:09;8.69;99.47
72326;DHT22;60278;47.980;18.780;2022-11-15T17:00:41;9.04;98.20
72326;DHT22;60278;47.980;18.780;2022-11-15T17:04:12;8.99;98.20
72326;DHT22;60278;47.980;18.780;2022-11-15T17:07:46;8.99;98.18
72326;DHT22;60278;47.980;18.780;2022-11-15T17:11:20;8.76;99.06
72326;DHT22;60278;47.980;18.780;2022-11-15T17:14:51;8.83;99.31
72326;DHT22;60278;47.980;18.780;2022-11-15T17:18:22;8.94;98.27
72326;DHT22;60278;47.980;18.780;2022-11-15T17:21:53;9.04;98.19
72326;DHT22;60278;47.980;18.780;2022-11-15T17:25:24;9.00;98.27
72326;DHT22;60278;47.980;18.780;2022-11-15T17:28:55;8.79;99.47
72326;DHT22;60278;47.980;18.780;2022-11-15T17:32:27;8.68;99.72
72326;DHT22;60278;47.980;18.780;2022-11-15T17:35:59;8.63;99.99
72326;DHT22;60278;47.980;18.780;2022-11-15T17:39:31;8.87;99.11
72326;DHT22;60278;47.980;18.780;2022-11-15T17:43:04;8.69;99.98
72326;DHT22;60278;47.980;18.780;2022-11-15T17:46:35;8.96;98.81
72326;DHT22;60278;47.980;18.780;2022-11-15T17:50:07;8.90;99.26
72326;DHT22;60278;47.980;18.780;2022-11-15T17:53:40;8.58;99.99
72326;DHT22;60278;47.980;18.780;2022-11-15T17:57:11;8.49;99.99
72326;DHT22;60278;47.980;18.780;2022-11-15T18:00:44;8.55;99.99
72326;DHT22;60278;47.980;18.780;2022-11-15T18:04:15;8.62;99.99
72326;DHT22;60278;47.980;18.780;2022-11-15T18:07:47;8.51;99.99
72326;DHT22;60278;47.980;18.780;2022-11-15T18:11:20;8.55;99.99
72326;DHT22;60278;47.980;18.780;2022-11-15T18:14:51;8.56;99.99
72326;DHT22;60278;47.980;18.780;2022-11-15T18:18:22;8.75;99.12
72326;DHT22;60278;47.980;18.780;2022-11-15T18:21:53;8.71;99.82
72326;DHT22;60278;47.980;18.780;2022-11-15T18:25:27;8.52;99.99
72326;DHT22;60278;47.980;18.780;2022-11-15T18:29:03;8.65;99.63
72326;DHT22;60278;47.980;18.780;2022-11-15T18:32:34;8.72;99.26
72326;DHT22;60278;47.980;18.780;2022-11-15T18:36:07;8.69;98.99
72326;DHT22;60278;47.980;18.780;2022-11-15T18:39:38;8.52;99.55
72326;DHT22;60278;47.980;18.780;2022-11-15T18:43:09;8.37;99.99
72326;DHT22;60278;47.980;18.780;2022-11-15T18:46:41;8.55;99.99
72326;DHT22;60278;47.980;18.780;2022-11-15T18:50:14;8.75;98.97
72326;DHT22;60278;47.980;18.780;2022-11-15T18:53:46;8.87;98.78
72326;DHT22;60278;47.980;18.780;2022-11-15T18:57:17;8.65;99.20
72326;DHT22;60278;47.980;18.780;2022-11-15T19:00:48;8.53;99.99
72326;DHT22;60278;47.980;18.780;2022-11-15T19:04:19;8.59;99.99
72326;DHT22;60278;47.980;18.780;2022-11-15T19:07:51;8.48;99.99
72326;DHT22;60278;47.980;18.780;2022-11-15T19:14:57;8.76;99.03
72326;DHT22;60278;47.980;18.780;2022-11-15T19:18:29;8.66;99.44
72326;DHT22;60278;47.980;18.780;2022-11-15T19:22:00;8.49;99.99
72326;DHT22;60278;47.980;18.780;2022-11-15T19:25:31;8.62;99.99
72326;DHT22;60278;47.980;18.780;2022-11-15T19:29:03;8.73;99.99
72326;DHT22;60278;47.980;18.780;2022-11-15T19:32:34;8.56;99.99
72326;DHT22;60278;47.980;18.780;2022-11-15T19:36:09;8.40;99.99
72326;DHT22;60278;47.980;18.780;2022-11-15T19:39:41;8.34;99.99
72326;DHT22;60278;47.980;18.780;2022-11-15T19:43:12;8.28;99.99
72326;DHT22;60278;47.980;18.780;2022-11-15T19:46:43;8.48;99.99
72326;DHT22;60278;47.980;18.780;2022-11-15T19:50:14;8.49;99.99
72326;DHT22;60278;47.980;18.780;2022-11-15T19:53:45;8.35;99.99
72326;DHT22;60278;47.980;18.780;2022-11-15T19:57:17;8.44;99.99
72326;DHT22;60278;47.980;18.780;2022-11-15T20:00:48;8.51;99.99
72326;DHT22;60278;47.980;18.780;2022-11-15T20:04:19;8.42;99.99
72326;DHT22;60278;47.980;18.780;2022-11-15T20:07:50;8.48;99.99
72326;DHT22;60278;47.980;18.780;2022-11-15T20:11:21;8.46;99.99
72326;DHT22;60278;47.980;18.780;2022-11-15T20:14:52;8.44;99.99
72326;DHT22;60278;47.980;18.780;2022-11-15T20:18:24;8.31;99.99
72326;DHT22;60278;47.980;18.780;2022-11-15T20:21:55;8.31;99.99
72326;DHT22;60278;47.980;18.780;2022-11-15T20:25:26;8.40;99.99
72326;DHT22;60278;47.980;18.780;2022-11-15T20:28:58;8.45;99.99
72326;DHT22;60278;47.980;18.780;2022-11-15T20:32:30;8.35;99.99
72326;DHT22;60278;47.980;18.780;2022-11-15T20:36:06;8.31;99.99
72326;DHT22;60278;47.980;18.780;2022-11-15T20:39:37;8.24;99.99
72326;DHT22;60278;47.980;18.780;2022-11-15T20:43:11;8.24;99.99
72326;DHT22;60278;47.980;18.780;2022-11-15T20:46:43;8.17;99.99
72326;DHT22;60278;47.980;18.780;2022-11-15T20:50:14;8.10;99.99
72326;DHT22;60278;47.980;18.780;2022-11-15T20:53:46;8.18;99.99
72326;DHT22;60278;47.980;18.780;2022-11-15T20:57:17;8.37;99.99
72326;DHT22;60278;47.980;18.780;2022-11-15T21:00:48;8.32;99.99
72326;DHT22;60278;47.980;18.780;2022-11-15T21:04:19;8.46;99.83
72326;DHT22;60278;47.980;18.780;2022-11-15T21:07:50;8.31;99.99
72326;DHT22;60278;47.980;18.780;2022-11-15T21:11:21;8.24;99.99
72326;DHT22;60278;47.980;18.780;2022-11-15T21:15:11;8.25;99.99
72326;DHT22;60278;47.980;18.780;2022-11-15T21:18:42;8.27;99.99
72326;DHT22;60278;47.980;18.780;2022-11-15T21:22:13;8.21;99.99
72326;DHT22;60278;47.980;18.780;2022-11-15T21:25:51;8.24;99.99
72326;DHT22;60278;47.980;18.780;2022-11-15T21:29:22;8.13;99.99
72326;DHT22;60278;47.980;18.780;2022-11-15T21:32:53;8.21;99.99
72326;DHT22;60278;47.980;18.780;2022-11-15T21:36:24;8.32;99.99
72326;DHT22;60278;47.980;18.780;2022-11-15T21:39:56;8.22;99.99
72326;DHT22;60278;47.980;18.780;2022-11-15T21:43:27;8.22;99.99
72326;DHT22;60278;47.980;18.780;2022-11-15T21:46:58;8.11;99.99
72326;DHT22;60278;47.980;18.780;2022-11-15T21:50:29;8.24;99.99
72326;DHT22;60278;47.980;18.780;2022-11-15T21:54:01;8.35;99.70
72326;DHT22;60278;47.980;18.780;2022-11-15T21:57:32;8.49;99.91
72326;DHT22;60278;47.980;18.780;2022-11-15T22:01:03;8.65;98.84
72326;DHT22;60278;47.980;18.780;2022-11-15T22:04:53;8.14;99.99
72326;DHT22;60278;47.980;18.780;2022-11-15T22:08:24;8.15;99.99
72326;DHT22;60278;47.980;18.780;2022-11-15T22:11:55;8.10;99.99
72326;DHT22;60278;47.980;18.780;2022-11-15T22:15:26;8.10;99.99
72326;DHT22;60278;47.980;18.780;2022-11-15T22:18:58;8.37;99.50
72326;DHT22;60278;47.980;18.780;2022-11-15T22:22:29;8.34;99.06
72326;DHT22;60278;47.980;18.780;2022-11-15T22:26:00;8.15;99.99
72326;DHT22;60278;47.980;18.780;2022-11-15T22:29:31;8.17;99.99
72326;DHT22;60278;47.980;18.780;2022-11-15T22:33:03;8.11;99.99
72326;DHT22;60278;47.980;18.780;2022-11-15T22:36:34;7.97;99.99
72326;DHT22;60278;47.980;18.780;2022-11-15T22:40:05;8.01;99.99
72326;DHT22;60278;47.980;18.780;2022-11-15T22:43:37;8.03;99.99
72326;DHT22;60278;47.980;18.780;2022-11-15T22:47:08;8.08;99.99
72326;DHT22;60278;47.980;18.780;2022-11-15T22:50:39;8.05;99.99
72326;DHT22;60278;47.980;18.780;2022-11-15T22:54:10;8.14;99.99
72326;DHT22;60278;47.980;18.780;2022-11-15T22:57:41;8.15;99.55
72326;DHT22;60278;47.980;18.780;2022-11-15T23:01:20;8.07;99.97
72326;DHT22;60278;47.980;18.780;2022-11-15T23:04:51;7.93;99.99
72326;DHT22;60278;47.980;18.780;2022-11-15T23:08:22;8.05;99.99
72326;DHT22;60278;47.980;18.780;2022-11-15T23:11:53;8.13;99.95
72326;DHT22;60278;47.980;18.780;2022-11-15T23:15:46;8.01;99.99
72326;DHT22;60278;47.980;18.780;2022-11-15T23:19:35;8.01;99.99
72326;DHT22;60278;47.980;18.780;2022-11-15T23:23:07;7.93;99.99
72326;DHT22;60278;47.980;18.780;2022-11-15T23:26:39;7.86;99.99
72326;DHT22;60278;47.980;18.780;2022-11-15T23:30:10;7.94;99.99
72326;DHT22;60278;47.980;18.780;2022-11-15T23:34:00;8.01;99.99
72326;DHT22;60278;47.980;18.780;2022-11-15T23:37:31;7.98;99.99
72326;DHT22;60278;47.980;18.780;2022-11-15T23:41:04;8.05;99.99
72326;DHT22;60278;47.980;18.780;2022-11-15T23:44:35;8.18;99.99
72326;DHT22;60278;47.980;18.780;2022-11-15T23:48:06;8.17;99.99
72326;DHT22;60278;47.980;18.780;2022-11-15T23:51:37;8.08;99.99
72326;DHT22;60278;47.980;18.780;2022-11-15T23:55:09;8.11;99.99
72326;DHT22;60278;47.980;18.780;2022-11-15T23:58:40;8.08;99.99
